HESH/SSH METAR and TAF weather

Enter ICAO airport designator
Station Type Date Time Source
HESH METAR 2020/06/02 18:00 UTC NOAA

HESH 021800Z 26015KT CAVOK 35/04 Q1005 NOSIG


Station Type Date Time Source
HESH Decoded METAR 2020/06/02 18:00 UTC NOAA

Sharm El Sheikhintl, Egypt (HESH) 27-58N 034-23E
Jun 02, 2020 - 02:00 PM EDT / 2020.06.02 1800 UTC
Wind: from the W (260 degrees) at 17 MPH (15 KT):0
Visibility: greater than 7 mile(s):0
Temperature: 95 F (35 C)
Dew Point: 39 F (4 C)
Relative Humidity: 14%
Pressure (altimeter): 29.68 in. Hg (1005 hPa)
ob: HESH 021800Z 26015KT CAVOK 35/04 Q1005 NOSIG
cycle: 18

Station Type Date Time Source
HESH TAF 2020/06/02 18:00 UTC NOAA

TAF TAF HESH 021700Z 0218/0324 35008G20KT CAVOK

Example: see airport list